Time;durP1;ratioP1;P1;durP2;ratioP2;P2;SDS_P1;SDS_P2;PMS_P1;PMS_P2;Temp;Humidity;BMP_temperature;BMP_pressure;BME280_temperature;BME280_humidity;BME280_pressure;Samples;Min_cycle;Max_cycle;Signal;HPM_P1;HPM_P2
2023/10/01 00:01:11;;;;;;;10.80;4.80;;;;;;;9.65;83.65;101245.17;109007;277;38154;-73
2023/10/01 00:03:58;;;;;;;11.00;5.90;;;;;;;9.66;83.83;101239.23;108940;277;38154;-72
2023/10/01 00:06:38;;;;;;;13.10;5.60;;;;;;;9.66;83.95;101237.67;109051;277;38122;-71
2023/10/01 00:09:20;;;;;;;15.00;6.10;;;;;;;9.66;84.08;101234.88;108975;277;38416;-71
2023/10/01 00:11:56;;;;;;;15.30;6.00;;;;;;;9.63;83.99;101230.74;109038;276;38969;-70
2023/10/01 00:14:32;;;;;;;11.30;5.30;;;;;;;9.63;83.99;101233.55;109002;277;38927;-73
2023/10/01 00:17:06;;;;;;;12.10;5.30;;;;;;;9.62;84.12;101235.82;108983;276;38538;-73
2023/10/01 00:19:42;;;;;;;14.60;6.70;;;;;;;9.61;84.16;101237.41;109017;277;38299;-72
2023/10/01 00:22:17;;;;;;;12.30;5.60;;;;;;;9.61;84.34;101232.54;109016;277;38161;-73
2023/10/01 00:24:53;;;;;;;13.60;6.30;;;;;;;9.61;84.23;101226.62;109046;277;38172;-72
2023/10/01 00:27:30;;;;;;;15.70;6.00;;;;;;;9.62;84.35;101227.48;109045;277;38252;-71
2023/10/01 00:30:09;;;;;;;13.20;5.80;;;;;;;9.63;84.43;101229.35;109025;277;38239;-71
2023/10/01 00:32:55;;;;;;;11.00;6.00;;;;;;;9.65;84.37;101224.45;108957;277;39688;-70
2023/10/01 00:35:40;;;;;;;12.80;6.30;;;;;;;9.64;84.41;101221.33;108933;269;38478;-73
2023/10/01 00:38:19;;;;;;;11.80;5.50;;;;;;;9.63;84.47;101222.02;108975;277;38691;-71
2023/10/01 00:40:56;;;;;;;14.60;6.20;;;;;;;9.63;84.44;101225.16;108977;277;38814;-71
2023/10/01 00:43:31;;;;;;;12.20;5.60;;;;;;;9.64;84.44;101220.27;108944;276;38778;-71
2023/10/01 00:46:08;;;;;;;12.60;5.20;;;;;;;9.64;84.61;101219.39;108980;277;39625;-70
2023/10/01 00:48:45;;;;;;;12.40;5.50;;;;;;;9.65;84.50;101212.95;108933;277;40293;-72
2023/10/01 00:51:21;;;;;;;14.40;5.70;;;;;;;9.64;84.48;101214.71;108963;277;39297;-71
2023/10/01 00:53:57;;;;;;;11.20;5.80;;;;;;;9.63;84.62;101219.79;108987;277;38147;-71
2023/10/01 00:56:33;;;;;;;12.50;5.00;;;;;;;9.62;84.60;101225.91;109024;277;38887;-70
2023/10/01 00:59:10;;;;;;;10.90;5.40;;;;;;;9.63;84.57;101228.14;109017;277;39447;-71
2023/10/01 01:01:44;;;;;;;11.00;5.90;;;;;;;9.63;84.64;101225.34;108888;277;175405;-73
2023/10/01 01:04:22;;;;;;;11.30;5.40;;;;;;;9.63;84.68;101223.27;109022;276;38142;-73
2023/10/01 01:07:02;;;;;;;20.70;5.80;;;;;;;9.62;84.80;101221.20;109033;277;38200;-72
2023/10/01 01:09:46;;;;;;;12.80;6.20;;;;;;;9.62;84.63;101222.77;109045;276;38543;-70
2023/10/01 01:12:23;;;;;;;13.40;6.10;;;;;;;9.62;84.63;101224.33;109024;277;38691;-71
2023/10/01 01:15:00;;;;;;;14.60;6.10;;;;;;;9.59;84.42;101218.30;108956;276;38204;-72
2023/10/01 01:17:36;;;;;;;12.30;5.90;;;;;;;9.56;84.50;101213.13;108976;277;39805;-71
2023/10/01 01:20:13;;;;;;;13.40;5.30;;;;;;;9.53;84.75;101216.33;108930;277;38286;-72
2023/10/01 01:22:54;;;;;;;12.70;6.20;;;;;;;9.52;84.88;101214.59;108971;277;39339;-71
2023/10/01 01:25:32;;;;;;;12.30;5.60;;;;;;;9.52;84.84;101217.73;108921;276;39330;-71
2023/10/01 01:28:12;;;;;;;11.80;5.80;;;;;;;9.54;84.84;101218.39;108990;276;38397;-72
2023/10/01 01:30:47;;;;;;;13.10;5.90;;;;;;;9.52;84.78;101221.56;108907;277;38905;-72
2023/10/01 01:33:26;;;;;;;15.50;6.10;;;;;;;9.51;84.93;101223.32;108973;277;38460;-72
2023/10/01 01:36:04;;;;;;;11.70;5.50;;;;;;;9.51;85.08;101218.63;108914;270;38505;-72
2023/10/01 01:38:40;;;;;;;12.90;6.10;;;;;;;9.50;85.11;101212.20;109015;276;38657;-70
2023/10/01 01:41:19;;;;;;;12.50;5.40;;;;;;;9.50;85.20;101205.75;108991;277;38795;-71
2023/10/01 01:43:54;;;;;;;10.70;5.80;;;;;;;9.51;85.31;101196.16;108970;276;38295;-72
2023/10/01 01:46:32;;;;;;;11.40;5.60;;;;;;;9.53;85.40;101192.45;108956;277;38165;-71
2023/10/01 01:49:09;;;;;;;11.80;6.00;;;;;;;9.52;85.38;101196.12;108966;277;38154;-71
2023/10/01 01:51:59;;;;;;;13.70;6.00;;;;;;;9.51;85.32;101194.24;109019;276;39056;-72
2023/10/01 01:54:36;;;;;;;12.70;5.90;;;;;;;9.49;85.41;101195.13;109030;277;39298;-73
2023/10/01 01:57:14;;;;;;;12.20;5.40;;;;;;;9.51;85.49;101197.90;108985;277;38528;-71
2023/10/01 01:59:50;;;;;;;13.30;6.10;;;;;;;9.54;85.58;101200.08;109050;276;38852;-73
2023/10/01 02:02:27;;;;;;;12.60;6.10;;;;;;;9.55;85.61;101195.71;109020;277;38670;-73
2023/10/01 02:05:10;;;;;;;12.50;6.00;;;;;;;9.58;85.65;101193.04;108962;277;38185;-73
2023/10/01 02:07:44;;;;;;;13.30;5.70;;;;;;;9.59;85.73;101194.59;109001;277;38490;-72
2023/10/01 02:10:20;;;;;;;11.50;5.70;;;;;;;9.60;85.84;101194.41;109026;277;39245;-70
2023/10/01 02:12:56;;;;;;;14.50;6.00;;;;;;;9.65;86.03;101197.09;109019;277;38983;-71
2023/10/01 02:15:31;;;;;;;13.50;6.30;;;;;;;9.68;85.91;101195.11;108987;277;38310;-70
2023/10/01 02:18:09;;;;;;;9.50;5.40;;;;;;;9.71;85.98;101195.41;108937;277;38681;-71
2023/10/01 02:20:44;;;;;;;12.70;5.90;;;;;;;9.73;85.80;101191.34;108994;277;38170;-73
2023/10/01 02:23:25;;;;;;;10.70;5.30;;;;;;;9.71;85.60;101186.67;108978;276;39357;-73
2023/10/01 02:26:06;;;;;;;13.50;5.80;;;;;;;9.71;85.61;101184.07;109073;276;38720;-73
2023/10/01 02:28:40;;;;;;;15.60;6.00;;;;;;;9.71;85.52;101185.28;109025;277;38199;-73
2023/10/01 02:31:24;;;;;;;14.30;6.20;;;;;;;9.69;85.28;101190.03;109110;276;39377;-72
2023/10/01 02:34:00;;;;;;;11.40;6.20;;;;;;;9.67;85.29;101192.34;109055;277;39623;-73
2023/10/01 02:36:36;;;;;;;12.40;5.90;;;;;;;9.64;85.38;101192.23;109065;276;39715;-71
2023/10/01 02:39:20;;;;;;;11.00;5.80;;;;;;;9.62;85.53;101192.80;109045;277;38225;-71
2023/10/01 02:44:58;;;;;;;10.50;5.10;;;;;;;9.64;85.78;101194.15;108902;277;38258;-73
2023/10/01 02:47:39;;;;;;;12.60;6.00;;;;;;;9.65;85.71;101192.20;108994;276;38897;-71
2023/10/01 02:50:17;;;;;;;15.20;6.80;;;;;;;9.65;85.74;101184.70;108978;277;38153;-73
2023/10/01 02:52:55;;;;;;;17.60;6.70;;;;;;;9.68;85.76;101181.00;108990;277;38173;-72
2023/10/01 02:55:32;;;;;;;16.50;5.90;;;;;;;9.69;86.07;101180.60;108874;277;174970;-70
2023/10/01 02:58:17;;;;;;;16.00;6.00;;;;;;;9.71;85.96;101186.33;108416;277;760260;-70
2023/10/01 03:00:53;;;;;;;14.90;5.70;;;;;;;9.74;85.93;101188.01;108831;277;175487;-70
2023/10/01 03:03:33;;;;;;;13.90;6.00;;;;;;;9.75;85.88;101183.98;108992;277;39353;-71
2023/10/01 03:06:10;;;;;;;14.00;6.10;;;;;;;9.79;86.13;101177.98;108973;277;38600;-72
2023/10/01 03:11:41;;;;;;;9.60;5.20;;;;;;;9.86;86.17;101181.83;108988;276;39628;-72
2023/10/01 03:14:26;;;;;;;14.80;5.80;;;;;;;9.90;86.10;101177.91;109027;276;39896;-71
2023/10/01 03:17:07;;;;;;;12.30;5.60;;;;;;;9.93;86.01;101173.48;109038;277;38562;-74
2023/10/01 03:19:43;;;;;;;12.80;5.80;;;;;;;9.95;85.99;101170.98;109017;276;39059;-71
2023/10/01 03:22:23;;;;;;;11.60;5.40;;;;;;;9.97;86.01;101174.27;108955;276;38183;-73
2023/10/01 03:25:11;;;;;;;13.00;5.80;;;;;;;9.99;85.97;101170.55;109027;276;39638;-71
2023/10/01 03:27:46;;;;;;;13.30;5.80;;;;;;;10.02;85.99;101176.92;108995;276;39611;-70
2023/10/01 03:30:25;;;;;;;12.00;5.20;;;;;;;10.05;85.92;101178.27;109044;276;38435;-71
2023/10/01 03:33:01;;;;;;;14.10;5.80;;;;;;;10.07;85.96;101179.60;108994;277;38445;-71
2023/10/01 03:35:36;;;;;;;16.20;6.30;;;;;;;10.09;85.97;101177.99;108946;277;39942;-72
2023/10/01 03:38:10;;;;;;;11.80;5.40;;;;;;;10.11;85.92;101172.91;108960;276;38239;-72
2023/10/01 03:41:00;;;;;;;11.30;5.40;;;;;;;10.15;85.91;101169.83;108302;276;903355;-72
2023/10/01 03:43:38;;;;;;;14.50;5.40;;;;;;;10.18;85.79;101171.69;108931;277;40012;-72
2023/10/01 03:46:25;;;;;;;12.10;5.20;;;;;;;10.20;85.68;101162.58;109007;276;38268;-72
2023/10/01 03:49:00;;;;;;;9.70;4.80;;;;;;;10.23;85.83;101161.96;108943;277;38959;-71
2023/10/01 03:54:52;;;;;;;11.80;4.80;;;;;;;10.29;85.65;101165.86;109004;277;38634;-74
2023/10/01 03:57:27;;;;;;;10.40;5.70;;;;;;;10.33;85.65;101170.64;108996;276;39520;-73
2023/10/01 04:00:28;;;;;;;13.00;4.90;;;;;;;10.37;85.52;101177.90;109016;277;38332;-72
2023/10/01 04:03:04;;;;;;;12.10;4.90;;;;;;;10.40;85.63;101178.02;109022;277;38482;-71
2023/10/01 04:05:56;;;;;;;13.00;4.90;;;;;;;10.43;85.72;101182.29;108971;277;38507;-74
2023/10/01 04:08:44;;;;;;;10.90;4.70;;;;;;;10.45;85.53;101184.66;109051;276;38079;-71
2023/10/01 04:11:41;;;;;;;10.30;4.10;;;;;;;10.48;85.62;101189.66;108949;277;38191;-72
2023/10/01 04:14:17;;;;;;;14.80;5.20;;;;;;;10.49;85.40;101189.98;109037;277;39417;-72
2023/10/01 04:16:56;;;;;;;10.00;4.80;;;;;;;10.51;85.27;101185.91;108977;276;39366;-73
2023/10/01 04:19:36;;;;;;;11.60;5.20;;;;;;;10.53;85.43;101180.09;108974;277;38422;-72
2023/10/01 04:22:12;;;;;;;12.00;4.90;;;;;;;10.56;85.31;101182.46;109006;277;38246;-72
2023/10/01 04:25:00;;;;;;;10.70;4.50;;;;;;;10.57;85.21;101182.09;108970;277;39609;-73
2023/10/01 04:27:35;;;;;;;12.30;5.40;;;;;;;10.60;85.25;101185.35;108993;277;39218;-71
2023/10/01 04:30:22;;;;;;;11.80;4.80;;;;;;;10.58;84.97;101185.57;108996;277;38301;-71
2023/10/01 04:33:16;;;;;;;13.20;5.90;;;;;;;10.56;84.91;101183.18;108979;277;39648;-73
2023/10/01 04:35:57;;;;;;;11.10;5.20;;;;;;;10.53;85.03;101183.94;108961;277;38340;-71
2023/10/01 04:38:37;;;;;;;11.70;5.10;;;;;;;10.55;85.14;101182.33;108982;277;39976;-71
2023/10/01 04:41:18;;;;;;;13.00;4.80;;;;;;;10.57;85.34;101175.81;108915;277;39033;-70
2023/10/01 04:44:00;;;;;;;11.40;5.30;;;;;;;10.60;85.21;101170.00;109035;277;38506;-70
2023/10/01 04:46:37;;;;;;;13.30;4.80;;;;;;;10.62;85.34;101162.80;109018;276;38312;-71
2023/10/01 04:52:17;;;;;;;10.40;4.40;;;;;;;10.64;85.42;101156.98;109067;277;38535;-71
2023/10/01 04:54:55;;;;;;;14.30;5.00;;;;;;;10.68;85.32;101154.79;109023;276;38248;-71
2023/10/01 04:57:36;;;;;;;11.20;5.40;;;;;;;10.71;85.35;101159.92;109030;276;38157;-71
2023/10/01 05:00:27;;;;;;;13.20;5.20;;;;;;;10.74;85.36;101159.16;109034;277;38258;-73
2023/10/01 05:03:10;;;;;;;12.10;5.10;;;;;;;10.74;85.21;101167.03;109005;277;38224;-71
2023/10/01 05:05:48;;;;;;;11.00;4.30;;;;;;;10.75;85.19;101177.80;108996;277;38327;-71
2023/10/01 05:08:24;;;;;;;10.80;4.60;;;;;;;10.78;85.09;101174.77;108925;276;39226;-71
2023/10/01 05:11:01;;;;;;;8.60;4.30;;;;;;;10.82;85.32;101166.44;108883;277;39312;-71
2023/10/01 05:13:40;;;;;;;13.60;4.70;;;;;;;10.84;85.10;101161.52;108978;277;38213;-71
2023/10/01 05:16:18;;;;;;;13.90;4.70;;;;;;;10.85;85.24;101162.70;109015;277;38332;-71
2023/10/01 05:19:09;;;;;;;11.90;5.40;;;;;;;10.87;85.20;101165.46;108967;276;38174;-70
2023/10/01 05:21:49;;;;;;;9.50;4.40;;;;;;;10.90;85.10;101164.51;109039;276;39338;-71
2023/10/01 05:24:34;;;;;;;9.80;4.40;;;;;;;10.94;85.28;101164.77;108973;277;39073;-71
2023/10/01 05:27:18;;;;;;;9.50;4.30;;;;;;;10.95;85.19;101168.92;108991;277;39744;-70
2023/10/01 05:29:57;;;;;;;10.90;4.10;;;;;;;10.95;85.15;101176.09;108984;277;38519;-71
2023/10/01 05:32:48;;;;;;;11.30;4.50;;;;;;;10.96;85.07;101178.64;109045;276;38473;-73
2023/10/01 05:35:23;;;;;;;10.40;3.90;;;;;;;11.01;85.13;101178.17;109041;277;38776;-74
2023/10/01 05:38:01;;;;;;;12.20;4.30;;;;;;;11.04;85.14;101180.52;109058;276;38174;-73
2023/10/01 05:40:42;;;;;;;11.00;4.10;;;;;;;11.10;85.26;101189.10;108993;277;38594;-73
2023/10/01 05:43:23;;;;;;;10.80;4.60;;;;;;;11.13;85.20;101188.84;108989;277;38300;-72
2023/10/01 05:46:01;;;;;;;15.20;5.60;;;;;;;11.15;85.12;101181.29;109035;276;38229;-73
2023/10/01 05:48:37;;;;;;;10.70;4.30;;;;;;;11.18;84.98;101184.17;109031;277;38974;-73
2023/10/01 05:51:18;;;;;;;11.90;4.50;;;;;;;11.23;85.06;101179.84;108961;276;39254;-71
2023/10/01 05:53:52;;;;;;;9.10;3.80;;;;;;;11.29;85.09;101178.45;108907;277;188843;-71
2023/10/01 05:56:36;;;;;;;13.40;4.80;;;;;;;11.34;85.00;101175.33;108957;276;39023;-72
2023/10/01 05:59:11;;;;;;;14.80;5.20;;;;;;;11.40;85.11;101177.45;108947;277;38344;-70
2023/10/01 06:01:48;;;;;;;9.70;4.80;;;;;;;11.45;84.80;101181.86;108968;277;37970;-74
2023/10/01 06:04:22;;;;;;;9.90;4.20;;;;;;;11.52;85.00;101187.40;108928;277;38379;-72
2023/10/01 06:07:02;;;;;;;7.90;4.20;;;;;;;11.60;84.75;101187.52;108987;276;38239;-73
2023/10/01 06:09:41;;;;;;;12.20;4.80;;;;;;;11.67;84.78;101191.88;109020;276;38804;-71
2023/10/01 06:12:19;;;;;;;12.30;4.50;;;;;;;11.72;84.71;101185.74;109026;277;40939;-72
2023/10/01 06:15:08;;;;;;;12.60;4.60;;;;;;;11.76;84.46;101187.73;108953;277;38891;-73
2023/10/01 06:17:42;;;;;;;9.90;3.80;;;;;;;11.81;84.36;101190.04;109003;277;39002;-72
2023/10/01 06:20:26;;;;;;;10.10;4.10;;;;;;;11.87;84.34;101190.75;108980;277;39332;-71
2023/10/01 06:23:00;;;;;;;12.20;4.30;;;;;;;11.94;84.17;101187.41;109028;276;38160;-71
2023/10/01 06:25:40;;;;;;;9.20;4.10;;;;;;;12.01;84.34;101185.61;109067;276;38864;-75
2023/10/01 06:28:20;;;;;;;9.60;4.00;;;;;;;12.07;84.11;101192.96;109080;277;38373;-73
2023/10/01 06:30:56;;;;;;;9.90;4.20;;;;;;;12.12;83.99;101208.52;109109;277;38827;-72
2023/10/01 06:33:36;;;;;;;12.00;5.10;;;;;;;12.18;83.86;101199.98;109025;276;38712;-72
2023/10/01 06:36:19;;;;;;;9.70;4.40;;;;;;;12.23;83.85;101199.98;108998;277;38954;-71
2023/10/01 06:38:59;;;;;;;11.70;4.20;;;;;;;12.25;83.61;101203.91;108965;277;39611;-71
2023/10/01 06:41:39;;;;;;;9.30;3.90;;;;;;;12.28;83.49;101203.31;109025;277;39810;-73
2023/10/01 06:44:15;;;;;;;9.90;3.70;;;;;;;12.32;83.33;101191.12;108962;276;38212;-72
2023/10/01 06:46:56;;;;;;;10.00;4.40;;;;;;;12.39;83.42;101192.83;108925;277;40328;-71
2023/10/01 06:49:34;;;;;;;;;;;;;;;12.44;83.29;101187.39;109036;277;38768;-71
2023/10/01 06:52:13;;;;;;;11.40;4.40;;;;;;;12.46;83.33;101184.88;109014;277;38780;-72
2023/10/01 06:54:49;;;;;;;10.50;4.40;;;;;;;12.50;83.20;101188.07;108932;277;38788;-72
2023/10/01 06:57:31;;;;;;;12.90;4.70;;;;;;;12.56;83.23;101187.70;108970;276;39407;-70
2023/10/01 07:00:21;;;;;;;11.10;5.10;;;;;;;12.59;82.97;101189.17;108945;276;38190;-71
2023/10/01 07:03:16;;;;;;;11.50;5.10;;;;;;;12.63;82.72;101187.98;108997;277;41384;-72
2023/10/01 07:05:55;;;;;;;11.30;4.40;;;;;;;12.68;82.75;101186.44;109079;276;39686;-71
2023/10/01 07:08:38;;;;;;;10.90;4.60;;;;;;;12.72;82.71;101189.27;109049;276;38425;-71
2023/10/01 07:11:18;;;;;;;11.40;4.30;;;;;;;12.76;82.68;101188.27;109020;276;38737;-71
2023/10/01 07:14:01;;;;;;;6.80;3.70;;;;;;;12.82;82.76;101190.84;108954;277;38236;-71
2023/10/01 07:16:44;;;;;;;11.10;4.80;;;;;;;12.91;82.82;101190.19;109000;277;38310;-73
2023/10/01 07:19:23;;;;;;;8.80;4.00;;;;;;;13.00;82.95;101192.70;109026;276;38347;-72
2023/10/01 07:22:14;;;;;;;11.60;4.40;;;;;;;13.09;82.82;101196.56;109002;277;38522;-71
2023/10/01 07:25:00;;;;;;;11.20;4.10;;;;;;;13.23;83.07;101199.07;108987;276;38406;-71
2023/10/01 07:27:42;;;;;;;12.20;4.40;;;;;;;13.41;83.20;101201.40;108965;276;39142;-72
2023/10/01 07:30:39;;;;;;;13.70;4.40;;;;;;;13.61;83.00;101195.41;108969;277;38348;-72
2023/10/01 07:33:14;;;;;;;12.70;4.20;;;;;;;13.80;82.50;101187.69;108840;277;175165;-71
2023/10/01 07:36:03;;;;;;;11.10;4.80;;;;;;;13.94;82.14;101189.95;109018;277;38140;-74
2023/10/01 07:38:48;;;;;;;10.70;4.30;;;;;;;14.05;81.58;101187.61;108970;276;38098;-72
2023/10/01 07:41:27;;;;;;;9.70;4.30;;;;;;;14.15;81.15;101183.86;108826;277;175168;-73
2023/10/01 07:44:07;;;;;;;8.30;4.00;;;;;;;14.27;81.30;101188.48;108963;277;38486;-72
2023/10/01 07:46:44;;;;;;;11.10;4.00;;;;;;;14.39;80.96;101192.56;108936;276;39915;-73
2023/10/01 07:49:21;;;;;;;8.90;4.50;;;;;;;14.51;80.45;101193.15;108998;276;38565;-71
2023/10/01 07:52:05;;;;;;;10.20;4.00;;;;;;;14.62;79.98;101188.80;108981;277;38719;-73
2023/10/01 07:54:48;;;;;;;10.10;3.70;;;;;;;14.76;79.84;101188.60;109043;277;38210;-73
2023/10/01 07:57:37;;;;;;;10.50;3.80;;;;;;;14.88;79.27;101189.97;109034;277;38249;-72
2023/10/01 08:00:28;;;;;;;9.40;3.90;;;;;;;15.05;78.59;101191.55;109021;277;39075;-76
2023/10/01 08:06:16;;;;;;;8.50;4.30;;;;;;;15.39;76.79;101200.58;109028;277;39126;-75
2023/10/01 08:08:57;;;;;;;9.40;4.30;;;;;;;15.53;76.80;101198.71;109033;277;39274;-75
2023/10/01 08:14:26;;;;;;;10.10;4.20;;;;;;;15.85;75.90;101184.29;108962;277;39005;-72
2023/10/01 08:17:02;;;;;;;7.90;3.60;;;;;;;15.95;75.46;101190.83;108977;277;39109;-73
2023/10/01 08:19:44;;;;;;;8.70;3.90;;;;;;;16.01;75.08;101189.86;108950;277;38661;-73
2023/10/01 08:22:43;;;;;;;8.00;4.00;;;;;;;16.05;74.55;101189.65;108955;277;40214;-76
2023/10/01 08:25:20;;;;;;;11.40;5.20;;;;;;;16.08;74.27;101192.19;108966;277;38132;-76
2023/10/01 08:31:42;;;;;;;10.30;4.30;;;;;;;16.16;73.98;101185.23;108973;277;38716;-72
2023/10/01 08:34:22;;;;;;;9.80;3.70;;;;;;;16.24;73.96;101185.92;108965;277;39398;-72
2023/10/01 08:37:06;;;;;;;9.20;3.70;;;;;;;16.34;73.07;101182.97;108985;277;38646;-75
2023/10/01 08:39:53;;;;;;;11.90;4.10;;;;;;;16.45;72.56;101183.14;108973;277;38389;-73
2023/10/01 08:42:31;;;;;;;10.00;3.80;;;;;;;16.56;71.95;101176.06;108989;277;38156;-73
2023/10/01 08:45:19;;;;;;;10.20;3.80;;;;;;;16.66;71.49;101179.42;108991;277;39685;-73
2023/10/01 08:47:59;;;;;;;10.00;4.00;;;;;;;16.74;71.30;101185.05;109013;277;38180;-73
2023/10/01 08:50:45;;;;;;;9.80;4.40;;;;;;;16.79;70.97;101181.64;109054;276;39796;-74
2023/10/01 08:53:36;;;;;;;9.90;4.80;;;;;;;16.81;70.73;101186.14;108943;277;38360;-73
2023/10/01 08:56:32;;;;;;;8.00;4.20;;;;;;;16.85;70.48;101182.91;108984;277;38319;-75
2023/10/01 08:59:23;;;;;;;7.90;4.00;;;;;;;16.90;70.58;101188.47;108951;277;39300;-74
2023/10/01 09:02:13;;;;;;;9.00;3.90;;;;;;;16.99;70.68;101194.34;108995;277;39390;-72
2023/10/01 09:04:48;;;;;;;7.30;3.60;;;;;;;17.09;70.11;101193.31;108876;277;175084;-73
2023/10/01 09:07:26;;;;;;;8.40;3.90;;;;;;;17.15;69.86;101196.16;108976;277;38469;-72
2023/10/01 09:10:17;;;;;;;8.00;3.60;;;;;;;17.21;69.75;101196.92;108963;277;38194;-73
2023/10/01 09:12:56;;;;;;;6.20;3.40;;;;;;;17.25;69.33;101202.34;109003;277;38363;-73
2023/10/01 09:15:29;;;;;;;;;;;;;;;17.40;69.76;101201.18;108955;277;38911;-75
2023/10/01 09:18:10;;;;;;;9.90;3.60;;;;;;;17.58;69.54;101197.56;108951;277;38340;-75
2023/10/01 09:21:06;;;;;;;12.20;4.90;;;;;;;17.73;68.51;101194.84;108934;277;38254;-75
2023/10/01 09:24:11;;;;;;;9.00;3.70;;;;;;;17.79;67.81;101191.50;108958;277;39316;-77
2023/10/01 09:26:53;;;;;;;9.40;4.10;;;;;;;17.83;67.56;101194.28;108897;277;177278;-74
2023/10/01 09:29:27;;;;;;;7.10;3.30;;;;;;;17.88;67.61;101198.45;108974;277;39150;-74
2023/10/01 09:32:07;;;;;;;10.70;3.90;;;;;;;17.97;67.37;101200.75;109041;277;38309;-74
2023/10/01 09:34:48;;;;;;;12.60;4.00;;;;;;;18.05;67.32;101201.93;108999;276;38288;-74
2023/10/01 09:37:34;;;;;;;9.40;3.30;;;;;;;18.16;66.90;101199.02;109006;277;38300;-73
2023/10/01 09:43:18;;;;;;;6.00;2.60;;;;;;;18.40;66.20;101194.27;108991;277;39669;-74
2023/10/01 09:45:53;;;;;;;8.20;3.50;;;;;;;18.47;65.43;101194.21;108997;277;38226;-75
2023/10/01 09:48:33;;;;;;;7.90;3.10;;;;;;;18.52;65.16;101193.58;108350;276;909555;-73
2023/10/01 09:51:13;;;;;;;6.00;2.70;;;;;;;18.55;64.84;101197.60;109023;276;39132;-74
2023/10/01 09:53:52;;;;;;;7.70;3.10;;;;;;;18.62;64.61;101197.96;108924;277;38763;-75
2023/10/01 09:56:29;;;;;;;8.90;2.90;;;;;;;18.66;64.19;101198.39;109008;277;39913;-75
2023/10/01 09:59:07;;;;;;;7.10;2.80;;;;;;;18.72;64.17;101198.44;108967;277;39525;-75
2023/10/01 10:01:45;;;;;;;7.70;3.20;;;;;;;18.79;63.67;101197.13;108980;277;39308;-73
2023/10/01 10:04:21;;;;;;;6.20;2.80;;;;;;;18.86;63.47;101197.06;109006;277;38734;-74
2023/10/01 10:07:01;;;;;;;9.40;3.00;;;;;;;18.91;63.39;101190.39;109003;277;39794;-74
2023/10/01 10:09:37;;;;;;;11.20;3.90;;;;;;;18.95;63.09;101187.15;109012;277;38783;-80
2023/10/01 10:12:14;;;;;;;7.10;2.80;;;;;;;18.98;63.11;101183.10;109051;277;38504;-73
2023/10/01 10:14:58;;;;;;;7.90;3.00;;;;;;;19.06;63.35;101178.55;109008;276;39346;-72
2023/10/01 10:17:48;;;;;;;6.80;2.70;;;;;;;19.12;63.01;101178.89;108987;276;38277;-73
2023/10/01 10:20:30;;;;;;;9.20;3.20;;;;;;;19.18;62.58;101182.77;109009;277;38274;-76
2023/10/01 10:23:21;;;;;;;8.90;2.70;;;;;;;19.20;62.38;101178.38;109032;277;39916;-75
2023/10/01 10:25:56;;;;;;;6.50;2.30;;;;;;;19.21;61.68;101179.39;108936;277;174870;-74
2023/10/01 10:28:51;;;;;;;5.30;2.40;;;;;;;19.22;61.77;101183.58;109011;277;38458;-75
2023/10/01 10:31:32;;;;;;;5.30;2.10;;;;;;;19.26;61.73;101184.59;109000;277;39224;-74
2023/10/01 10:34:30;;;;;;;9.90;2.60;;;;;;;19.30;61.29;101176.73;108996;276;38194;-74
2023/10/01 10:37:09;;;;;;;6.40;2.30;;;;;;;19.26;60.30;101177.52;108884;277;175702;-72
2023/10/01 10:43:18;;;;;;;9.00;2.90;;;;;;;19.31;60.53;101172.96;108992;277;39676;-73
2023/10/01 10:46:10;;;;;;;7.50;2.00;;;;;;;19.28;59.95;101170.51;108983;276;38459;-74
2023/10/01 10:49:06;;;;;;;5.90;2.30;;;;;;;19.25;60.04;101171.55;108969;276;38141;-73
2023/10/01 10:51:58;;;;;;;9.20;2.40;;;;;;;19.22;59.89;101167.64;108956;277;38159;-72
2023/10/01 10:54:45;;;;;;;7.60;2.60;;;;;;;19.22;59.91;101162.70;108871;277;174954;-74
2023/10/01 10:57:31;;;;;;;5.10;2.40;;;;;;;19.25;60.33;101160.39;108419;276;785616;-76
2023/10/01 11:00:23;;;;;;;7.30;2.20;;;;;;;19.31;60.34;101157.03;108979;276;38351;-74
2023/10/01 11:02:59;;;;;;;5.80;2.50;;;;;;;19.38;59.82;101161.01;109009;276;38907;-74
2023/10/01 11:05:49;;;;;;;7.40;2.50;;;;;;;19.44;59.47;101159.05;109011;276;38278;-75
2023/10/01 11:08:27;;;;;;;6.90;2.50;;;;;;;19.45;58.72;101151.91;109056;276;39523;-76
2023/10/01 11:11:10;;;;;;;5.60;1.90;;;;;;;19.49;58.85;101154.99;109007;277;38178;-74
2023/10/01 11:13:59;;;;;;;8.30;2.10;;;;;;;19.54;58.19;101152.93;108978;276;175715;-76
2023/10/01 11:16:37;;;;;;;8.30;2.00;;;;;;;19.54;56.70;101156.47;109031;277;38764;-75
2023/10/01 11:19:16;;;;;;;4.40;2.00;;;;;;;19.50;57.01;101152.13;109093;277;38351;-75
2023/10/01 11:21:59;;;;;;;6.60;2.70;;;;;;;19.47;56.34;101153.90;108990;277;38360;-75
2023/10/01 11:24:37;;;;;;;5.30;2.00;;;;;;;19.37;56.11;101150.61;108862;277;174878;-76
2023/10/01 11:27:43;;;;;;;5.70;2.50;;;;;;;19.33;56.08;101148.59;109002;276;38477;-73
2023/10/01 11:30:27;;;;;;;5.20;2.20;;;;;;;19.26;55.50;101152.19;109015;277;38486;-75
2023/10/01 11:33:14;;;;;;;6.10;2.20;;;;;;;19.19;55.52;101144.52;108858;277;174973;-75
2023/10/01 11:36:07;;;;;;;3.80;2.10;;;;;;;19.15;55.72;101147.21;108972;276;38936;-74
2023/10/01 11:38:47;;;;;;;5.30;1.80;;;;;;;19.12;55.43;101144.56;108965;276;39586;-74
2023/10/01 11:41:38;;;;;;;6.80;1.90;;;;;;;19.08;54.82;101146.05;108937;277;38050;-75
2023/10/01 11:44:29;;;;;;;3.80;1.90;;;;;;;19.06;55.34;101138.95;108948;276;38319;-76
2023/10/01 11:47:25;;;;;;;5.50;2.40;;;;;;;19.12;55.70;101136.67;109023;277;38239;-76
2023/10/01 11:50:14;;;;;;;4.30;2.00;;;;;;;19.14;55.51;101131.92;108953;276;38163;-76
2023/10/01 11:52:47;;;;;;;;;;;;;;;19.19;55.51;101128.91;109055;276;38989;-73
2023/10/01 11:55:23;;;;;;;6.90;2.20;;;;;;;19.24;56.10;101126.32;109001;277;38173;-75
2023/10/01 11:57:58;;;;;;;8.80;2.60;;;;;;;19.36;56.10;101128.21;108983;277;38182;-77
2023/10/01 12:00:52;;;;;;;5.30;2.20;;;;;;;19.48;56.08;101127.27;108964;276;39988;-74
2023/10/01 12:03:28;;;;;;;6.80;2.00;;;;;;;19.58;55.93;101129.14;108959;277;39279;-74
2023/10/01 12:06:05;;;;;;;5.10;2.00;;;;;;;19.63;55.37;101132.03;109015;276;38565;-76
2023/10/01 12:08:47;;;;;;;5.90;1.90;;;;;;;19.61;54.63;101131.66;109031;276;38361;-75
2023/10/01 12:11:27;;;;;;;4.40;2.40;;;;;;;19.52;54.35;101132.16;109041;276;38359;-74
2023/10/01 12:14:05;;;;;;;5.10;1.80;;;;;;;19.46;54.78;101136.45;109004;277;38163;-74
2023/10/01 12:16:44;;;;;;;5.70;2.30;;;;;;;19.43;54.68;101137.14;109014;277;38303;-74
2023/10/01 12:19:25;;;;;;;6.30;2.20;;;;;;;19.40;54.79;101140.58;108946;277;38350;-73
2023/10/01 12:22:06;;;;;;;4.60;2.20;;;;;;;19.38;54.95;101139.24;108941;277;38490;-82
2023/10/01 12:24:49;;;;;;;4.60;2.00;;;;;;;19.39;54.76;101134.91;109051;277;38652;-75
2023/10/01 12:30:30;;;;;;;6.10;2.30;;;;;;;19.44;54.32;101127.05;108949;277;38714;-73
2023/10/01 12:33:08;;;;;;;8.50;2.70;;;;;;;19.44;53.90;101124.88;108997;277;39398;-73
2023/10/01 12:35:50;;;;;;;4.80;2.40;;;;;;;19.45;53.84;101125.04;108996;276;38348;-76
2023/10/01 12:38:28;;;;;;;4.80;2.10;;;;;;;19.45;53.70;101127.70;108964;277;38153;-75
2023/10/01 12:41:07;;;;;;;5.90;2.10;;;;;;;19.45;54.12;101119.85;108866;277;174875;-74
2023/10/01 12:43:45;;;;;;;4.70;2.10;;;;;;;19.47;53.90;101118.83;108948;277;39309;-76
2023/10/01 12:46:22;;;;;;;6.00;2.10;;;;;;;19.47;53.70;101116.96;108979;277;38749;-75
2023/10/01 12:51:48;;;;;;;5.30;2.00;;;;;;;19.45;53.02;101115.63;109027;277;39407;-82
2023/10/01 12:54:25;;;;;;;4.20;1.90;;;;;;;19.40;52.96;101110.83;108997;277;39629;-71
2023/10/01 12:57:09;;;;;;;4.20;2.00;;;;;;;19.39;53.20;101108.23;109033;277;38252;-73
2023/10/01 13:00:21;;;;;;;6.00;3.60;;;;;;;19.37;53.09;101104.10;108989;277;39875;-74